Alburtis, Pennsylvania
Current Conditions -  °F | °C
As of 9:35 PM on Tuesday 21 Oct 2014 (Local Time) from KXLL Reporting Station
Haze Haze  
Wind Chill: 13°   Ceiling: Unl
Heat Index: 13°   Visibility: 4mi
Dew Point: 10°   Wind: 9mph
Humidity: 82%   Direction: 40°NE
Pressure: 29.92"   Gusts: NA
Location:  40.51°N, 75.6°W
Report Text: KXLL 220135Z AUTO 04008KT 4SM HZ SCT046 13/10 A2992 RMK AO2
Loading
Personal Weather Stations






























Interactive Weather Map New forecast layout! Learn more

10-Day Weather Forecast

Advertisements
Track Severe Weather on mobile